PWSweather.com
Personal Weather Stations
Station Observations
KCTHAMDEN
Dunbar Hill, Hamden, CT 06514

Dunbar HillHamden, CT 06514

Lat: 41.365437, Lon: -72.956532

Elevation: 200

Station Type: Davis Vantage Pro2+

www.hamdenweather.com

High Low Average
Temperature 78.4°F25.8°F 54.0°F12.2°F 67.0°F19.4°F
Dew Point 64.5°F18.1°F 52.6°F11.4°F 58.7°F14.8°F
Winds 3.7 mph ESE6.0 mph ESE Calm Calm 1.0 mph 1.6 mph
Wind Gusts 8.0 mph12.9 mph -- 2.6 mph4.2 mph
Humidity 97% 50% 77%
Pressure 30.26 in1024.70 in 30.14 in1020.70 in -
Precipitation 0.00 in0.00 in - -
Hour Temp Dew Point Humidity Winds Wind Gusts Pressure Precip Precip Rate Daily Precip Total
01:02 AM 58.5°F14.7°C 55.8°F13.2°C 91% Calm Calm -- 30.23 in1023.7 mb - 0.00 in0.0 mm 0.00 in0.0 mm
01:15 AM 57.5°F14.2°C 54.9°F12.7°C 91% 0.3 mph W0.5 kmh W -- 30.23 in1023.7 mb - 0.00 in0.0 mm 0.00 in0.0 mm
01:33 AM 57.4°F14.1°C 55.0°F12.8°C 92% Calm Calm 1.0 mph1.6 kmh 30.23 in1023.7 mb - 0.00 in0.0 mm 0.00 in0.0 mm
02:02 AM 56.9°F13.8°C 54.9°F12.7°C 93% Calm Calm -- 30.24 in1024.0 mb - 0.00 in0.0 mm 0.00 in0.0 mm
02:32 AM 56.3°F13.5°C 54.3°F12.4°C 93% Calm Calm -- 30.24 in1024.0 mb - 0.00 in0.0 mm 0.00 in0.0 mm
03:00 AM 56.2°F13.4°C 54.5°F12.5°C 94% Calm Calm -- 30.24 in1024.0 mb - 0.00 in0.0 mm 0.00 in0.0 mm
03:15 AM 56.4°F13.6°C 55.0°F12.8°C 95% Calm Calm -- 30.23 in1023.7 mb - 0.00 in0.0 mm 0.00 in0.0 mm
04:15 AM 55.8°F13.2°C 54.4°F12.4°C 95% Calm Calm -- 30.22 in1023.4 mb - 0.00 in0.0 mm 0.00 in0.0 mm
04:31 AM 55.5°F13.1°C 54.1°F12.3°C 95% Calm Calm -- 30.21 in1023.0 mb - 0.00 in0.0 mm 0.00 in0.0 mm
04:47 AM 55.2°F12.9°C 53.8°F12.1°C 95% Calm Calm -- 30.21 in1023.0 mb - 0.00 in0.0 mm 0.00 in0.0 mm
05:00 AM 55.1°F12.8°C 53.7°F12.1°C 95% Calm Calm -- 30.22 in1023.4 mb - 0.00 in0.0 mm 0.00 in0.0 mm
05:33 AM 54.9°F12.7°C 53.5°F11.9°C 95% Calm Calm -- 30.22 in1023.4 mb - 0.00 in0.0 mm 0.00 in0.0 mm
05:45 AM 54.2°F12.3°C 52.8°F11.6°C 95% Calm Calm -- 30.23 in1023.7 mb - 0.00 in0.0 mm 0.00 in0.0 mm
06:01 AM 54.1°F12.3°C 52.7°F11.5°C 95% Calm Calm -- 30.24 in1024.0 mb - 0.00 in0.0 mm 0.00 in0.0 mm
06:31 AM 54.0°F12.2°C 52.6°F11.4°C 95% Calm Calm -- 30.25 in1024.4 mb - 0.00 in0.0 mm 0.00 in0.0 mm
06:45 AM 54.2°F12.3°C 53.1°F11.7°C 96% Calm Calm -- 30.24 in1024.0 mb - 0.00 in0.0 mm 0.00 in0.0 mm
07:15 AM 55.6°F13.1°C 54.8°F12.7°C 97% Calm Calm -- 30.24 in1024.0 mb - 0.00 in0.0 mm 0.00 in0.0 mm
07:32 AM 57.6°F14.2°C 56.7°F13.7°C 97% Calm Calm -- 30.25 in1024.4 mb - 0.00 in0.0 mm 0.00 in0.0 mm
08:00 AM 61.3°F16.3°C 60.5°F15.8°C 97% 0.1 mph S0.2 kmh S 2.0 mph3.2 kmh 30.25 in1024.4 mb - 0.00 in0.0 mm 0.00 in0.0 mm
08:31 AM 63.3°F17.4°C 62.5°F16.9°C 97% 0.8 mph S1.3 kmh S 3.0 mph4.8 kmh 30.26 in1024.7 mb - 0.00 in0.0 mm 0.00 in0.0 mm
09:01 AM 67.3°F19.6°C 63.3°F17.4°C 87% 1.2 mph NE1.9 kmh NE 4.0 mph6.4 kmh 30.26 in1024.7 mb - 0.00 in0.0 mm 0.00 in0.0 mm
09:15 AM 69.8°F21.0°C 61.5°F16.4°C 75% 1.9 mph N3.1 kmh N 8.0 mph12.9 kmh 30.26 in1024.7 mb - 0.00 in0.0 mm 0.00 in0.0 mm
09:32 AM 70.8°F21.6°C 61.0°F16.1°C 71% 2.4 mph E3.9 kmh E 4.0 mph6.4 kmh 30.26 in1024.7 mb - 0.00 in0.0 mm 0.00 in0.0 mm
10:00 AM 72.8°F22.7°C 60.7°F15.9°C 66% 2.1 mph NE3.4 kmh NE 5.0 mph8.0 kmh 30.25 in1024.4 mb - 0.00 in0.0 mm 0.00 in0.0 mm
10:45 AM 74.5°F23.6°C 59.3°F15.2°C 59% 2.5 mph E4.0 kmh E 4.0 mph6.4 kmh 30.24 in1024.0 mb - 0.00 in0.0 mm 0.00 in0.0 mm
11:00 AM 74.8°F23.8°C 61.8°F16.6°C 64% 1.9 mph NNE3.1 kmh NNE 4.0 mph6.4 kmh 30.23 in1023.7 mb - 0.00 in0.0 mm 0.00 in0.0 mm
11:32 AM 75.9°F24.4°C 61.1°F16.2°C 60% 2.1 mph ENE3.4 kmh ENE 8.0 mph12.9 kmh 30.23 in1023.7 mb - 0.00 in0.0 mm 0.00 in0.0 mm
11:45 AM 76.5°F24.7°C 60.6°F15.9°C 58% 2.9 mph ESE4.7 kmh ESE 4.0 mph6.4 kmh 30.23 in1023.7 mb - 0.00 in0.0 mm 0.00 in0.0 mm
12:00 PM 77.0°F25.0°C 60.6°F15.9°C 57% 2.6 mph E4.2 kmh E 8.0 mph12.9 kmh 30.23 in1023.7 mb - 0.00 in0.0 mm 0.00 in0.0 mm
12:15 PM 77.0°F25.0°C 60.1°F15.6°C 56% 2.7 mph NE4.3 kmh NE 4.0 mph6.4 kmh 30.23 in1023.7 mb - 0.00 in0.0 mm 0.00 in0.0 mm
12:31 PM 77.1°F25.1°C 62.1°F16.7°C 60% 1.9 mph ESE3.1 kmh ESE 7.0 mph11.3 kmh 30.22 in1023.4 mb - 0.00 in0.0 mm 0.00 in0.0 mm
01:00 PM 77.7°F25.4°C 60.2°F15.7°C 55% 0.8 mph NE1.3 kmh NE 1.0 mph1.6 kmh 30.21 in1023.0 mb - 0.00 in0.0 mm 0.00 in0.0 mm
01:33 PM 76.3°F24.6°C 63.2°F17.3°C 64% 2.3 mph SE3.7 kmh SE 6.0 mph9.7 kmh 30.20 in1022.7 mb - 0.00 in0.0 mm 0.00 in0.0 mm
01:45 PM 77.0°F25.0°C 64.4°F18.0°C 65% 2.4 mph ESE3.9 kmh ESE 7.0 mph11.3 kmh 30.20 in1022.7 mb - 0.00 in0.0 mm 0.00 in0.0 mm
02:00 PM 78.1°F25.6°C 64.5°F18.1°C 63% 2.7 mph SE4.3 kmh SE 7.0 mph11.3 kmh 30.20 in1022.7 mb - 0.00 in0.0 mm 0.00 in0.0 mm
03:00 PM 77.9°F25.5°C 59.9°F15.5°C 54% 2.1 mph SE3.4 kmh SE 4.0 mph6.4 kmh 30.19 in1022.4 mb - 0.00 in0.0 mm 0.00 in0.0 mm
03:15 PM 77.9°F25.5°C 57.7°F14.3°C 50% 2.6 mph E4.2 kmh E 7.0 mph11.3 kmh 30.18 in1022.0 mb - 0.00 in0.0 mm 0.00 in0.0 mm
04:01 PM 77.4°F25.2°C 58.9°F14.9°C 53% 3.7 mph ESE6.0 kmh ESE 7.0 mph11.3 kmh 30.18 in1022.0 mb - 0.00 in0.0 mm 0.00 in0.0 mm
04:32 PM 78.3°F25.7°C 60.8°F16.0°C 55% 2.6 mph SW4.2 kmh SW 8.0 mph12.9 kmh 30.16 in1021.3 mb - 0.00 in0.0 mm 0.00 in0.0 mm
04:46 PM 78.4°F25.8°C 60.4°F15.8°C 54% 2.6 mph SE4.2 kmh SE 6.0 mph9.7 kmh 30.16 in1021.3 mb - 0.00 in0.0 mm 0.00 in0.0 mm
05:00 PM 78.1°F25.6°C 61.1°F16.2°C 56% 3.1 mph SW5.0 kmh SW 5.0 mph8.0 kmh 30.16 in1021.3 mb - 0.00 in0.0 mm 0.00 in0.0 mm
05:15 PM 77.5°F25.3°C 61.1°F16.2°C 57% 2.8 mph S4.5 kmh S 6.0 mph9.7 kmh 30.16 in1021.3 mb - 0.00 in0.0 mm 0.00 in0.0 mm
05:45 PM 77.0°F25.0°C 62.1°F16.7°C 60% 2.1 mph WSW3.4 kmh WSW 4.0 mph6.4 kmh 30.15 in1021.0 mb - 0.00 in0.0 mm 0.00 in0.0 mm
06:15 PM 75.9°F24.4°C 62.0°F16.7°C 62% 0.9 mph SSW1.4 kmh SSW 3.0 mph4.8 kmh 30.15 in1021.0 mb - 0.00 in0.0 mm 0.00 in0.0 mm
07:00 PM 72.8°F22.7°C 61.6°F16.4°C 68% 0.2 mph SSE0.3 kmh SSE 2.0 mph3.2 kmh 30.14 in1020.7 mb - 0.00 in0.0 mm 0.00 in0.0 mm
07:19 PM 72.0°F22.2°C 61.7°F16.5°C 70% 1.2 mph SW1.9 kmh SW 3.0 mph4.8 kmh 30.14 in1020.7 mb - 0.00 in0.0 mm 0.00 in0.0 mm
07:33 PM 71.3°F21.8°C 61.4°F16.3°C 71% 0.4 mph SSW0.6 kmh SSW 3.0 mph4.8 kmh 30.14 in1020.7 mb - 0.00 in0.0 mm 0.00 in0.0 mm
07:45 PM 70.8°F21.6°C 61.7°F16.5°C 73% 1.1 mph SE1.8 kmh SE 2.0 mph3.2 kmh 30.14 in1020.7 mb - 0.00 in0.0 mm 0.00 in0.0 mm
08:15 PM 69.3°F20.7°C 61.1°F16.2°C 75% 0.6 mph S1.0 kmh S 1.0 mph1.6 kmh 30.14 in1020.7 mb - 0.00 in0.0 mm 0.00 in0.0 mm
09:02 PM 66.7°F19.3°C 60.0°F15.6°C 79% 0.1 mph WSW0.2 kmh WSW 2.0 mph3.2 kmh 30.14 in1020.7 mb - 0.00 in0.0 mm 0.00 in0.0 mm
09:15 PM 66.2°F19.0°C 59.5°F15.3°C 79% Calm Calm -- 30.15 in1021.0 mb - 0.00 in0.0 mm 0.00 in0.0 mm
09:30 PM 65.7°F18.7°C 59.4°F15.2°C 80% Calm Calm -- 30.14 in1020.7 mb - 0.00 in0.0 mm 0.00 in0.0 mm
09:45 PM 65.1°F18.4°C 59.5°F15.3°C 82% Calm Calm -- 30.15 in1021.0 mb - 0.00 in0.0 mm 0.00 in0.0 mm
10:00 PM 64.5°F18.1°C 59.3°F15.2°C 83% Calm Calm -- 30.15 in1021.0 mb - 0.00 in0.0 mm 0.00 in0.0 mm
10:18 PM 64.1°F17.8°C 59.2°F15.1°C 84% Calm Calm -- 30.15 in1021.0 mb - 0.00 in0.0 mm 0.00 in0.0 mm
10:45 PM 62.8°F17.1°C 58.2°F14.6°C 85% Calm Calm -- 30.14 in1020.7 mb - 0.00 in0.0 mm 0.00 in0.0 mm
11:16 PM 61.6°F16.4°C 57.4°F14.1°C 86% Calm Calm -- 30.14 in1020.7 mb - 0.00 in0.0 mm 0.00 in0.0 mm
11:45 PM 60.8°F16.0°C 57.2°F14.0°C 88% Calm Calm 1.0 mph1.6 kmh 30.14 in1020.7 mb - 0.00 in0.0 mm 0.00 in0.0 mm